Time,TemperatureF,DewpointF,PressureIn,WindDirection,WindDirectionDegrees,WindSpeedMPH,WindSpeedGustMPH,Humidity,HourlyPrecipIn,Conditions,Clouds,dailyrainin,SoftwareType,DateUTC
2013-09-26 00:03:00,52.5,25.7,30.71,NE,45,4.0,10.0,35,0.00,,,0.00,meteohub,2013-09-26 06:03:00,
2013-09-26 00:08:00,51.8,25.7,30.71,NE,45,3.0,10.0,36,0.00,,,0.00,meteohub,2013-09-26 06:08:00,
2013-09-26 00:13:00,51.8,26.4,30.71,WSW,248,4.0,4.0,37,0.00,,,0.00,meteohub,2013-09-26 06:13:00,
2013-09-26 00:18:00,51.6,26.8,30.71,NE,45,2.0,8.0,38,0.00,,,0.00,meteohub,2013-09-26 06:18:00,
2013-09-26 00:24:00,51.4,26.6,30.71,East,90,6.0,8.0,38,0.00,,,0.00,meteohub,2013-09-26 06:24:00,
2013-09-26 00:29:00,51.8,26.4,30.71,East,90,7.0,8.0,37,0.00,,,0.00,meteohub,2013-09-26 06:29:00,
2013-09-26 00:34:00,52.2,26.6,30.70,East,90,4.0,8.0,37,0.00,,,0.00,meteohub,2013-09-26 06:34:00,
2013-09-26 00:39:00,52.0,26.6,30.70,NNW,338,4.0,8.0,37,0.00,,,0.00,meteohub,2013-09-26 06:39:00,
2013-09-26 00:44:00,52.2,26.6,30.70,NE,45,4.0,8.0,37,0.00,,,0.00,meteohub,2013-09-26 06:44:00,
2013-09-26 00:49:00,52.3,26.8,30.70,NE,45,5.0,6.0,37,0.00,,,0.00,meteohub,2013-09-26 06:49:00,
2013-09-26 00:54:00,52.3,26.8,30.71,East,90,6.0,6.0,37,0.00,,,0.00,meteohub,2013-09-26 06:54:00,
2013-09-26 00:59:00,52.3,26.2,30.70,East,90,5.0,8.0,36,0.00,,,0.00,meteohub,2013-09-26 06:59:00,
2013-09-26 01:04:00,52.3,26.2,30.71,East,90,4.0,8.0,36,0.00,,,0.00,meteohub,2013-09-26 07:04:00,
2013-09-26 01:09:00,52.0,25.9,30.70,NE,45,4.0,8.0,36,0.00,,,0.00,meteohub,2013-09-26 07:09:00,
2013-09-26 01:14:00,51.8,26.4,30.71,NE,45,4.0,7.0,37,0.00,,,0.00,meteohub,2013-09-26 07:14:00,
2013-09-26 01:19:00,51.6,26.8,30.70,NE,45,5.0,6.0,38,0.00,,,0.00,meteohub,2013-09-26 07:19:00,
2013-09-26 01:24:00,51.8,26.4,30.70,NE,45,6.0,6.0,37,0.00,,,0.00,meteohub,2013-09-26 07:24:00,
2013-09-26 01:29:00,51.8,25.7,30.71,East,90,4.0,5.0,36,0.00,,,0.00,meteohub,2013-09-26 07:29:00,
2013-09-26 01:34:00,52.0,25.2,30.70,East,90,4.0,6.0,35,0.00,,,0.00,meteohub,2013-09-26 07:34:00,
2013-09-26 01:39:00,52.0,25.2,30.71,NE,45,4.0,8.0,35,0.00,,,0.00,meteohub,2013-09-26 07:39:00,
2013-09-26 01:44:00,52.0,25.2,30.71,East,90,4.0,8.0,35,0.00,,,0.00,meteohub,2013-09-26 07:44:00,
2013-09-26 01:49:00,51.8,24.3,30.71,NE,45,5.0,8.0,34,0.00,,,0.00,meteohub,2013-09-26 07:49:00,
2013-09-26 01:54:00,51.8,25.0,30.71,East,90,4.0,8.0,35,0.00,,,0.00,meteohub,2013-09-26 07:54:00,
2013-09-26 01:59:00,51.1,26.4,30.72,North,0,3.0,8.0,38,0.00,,,0.00,meteohub,2013-09-26 07:59:00,
2013-09-26 02:04:00,50.7,26.6,30.71,North,0,5.0,8.0,39,0.00,,,0.00,meteohub,2013-09-26 08:04:00,
2013-09-26 02:10:00,48.6,25.9,30.72,NE,45,4.0,5.0,41,0.00,,,0.00,meteohub,2013-09-26 08:10:00,
2013-09-26 02:15:00,49.3,26.6,30.71,NE,45,4.0,5.0,41,0.00,,,0.00,meteohub,2013-09-26 08:15:00,
2013-09-26 02:20:00,50.5,25.9,30.71,East,90,3.0,5.0,38,0.00,,,0.00,meteohub,2013-09-26 08:20:00,
2013-09-26 02:25:00,51.1,25.7,30.71,NE,45,4.0,11.0,37,0.00,,,0.00,meteohub,2013-09-26 08:25:00,
2013-09-26 02:30:00,51.3,25.2,30.71,NE,45,4.0,11.0,36,0.00,,,0.00,meteohub,2013-09-26 08:30:00,
2013-09-26 02:35:00,51.3,24.6,30.71,NE,45,4.0,11.0,35,0.00,,,0.00,meteohub,2013-09-26 08:35:00,
2013-09-26 02:40:00,51.1,24.4,30.71,East,90,4.0,8.0,35,0.00,,,0.00,meteohub,2013-09-26 08:40:00,
2013-09-26 02:45:00,51.3,24.6,30.71,East,90,9.0,9.0,35,0.00,,,0.00,meteohub,2013-09-26 08:45:00,
2013-09-26 02:50:00,51.4,24.1,30.71,ENE,68,4.0,9.0,34,0.00,,,0.00,meteohub,2013-09-26 08:50:00,
2013-09-26 02:55:00,51.4,24.1,30.71,East,90,6.0,9.0,34,0.00,,,0.00,meteohub,2013-09-26 08:55:00,
2013-09-26 03:00:00,51.1,23.7,30.71,NE,45,8.0,9.0,34,0.00,,,0.00,meteohub,2013-09-26 09:00:00,
2013-09-26 03:05:00,51.1,23.7,30.71,NW,315,0.0,7.0,34,0.00,,,0.00,meteohub,2013-09-26 09:05:00,
2013-09-26 03:10:00,50.0,24.1,30.72,NE,45,5.0,8.0,36,0.00,,,0.00,meteohub,2013-09-26 09:10:00,
2013-09-26 03:15:00,48.6,24.8,30.71,NE,45,4.0,8.0,39,0.00,,,0.00,meteohub,2013-09-26 09:15:00,
2013-09-26 03:20:00,48.0,24.8,30.72,NE,45,4.0,8.0,40,0.00,,,0.00,meteohub,2013-09-26 09:20:00,
2013-09-26 03:25:00,48.4,24.6,30.71,NE,45,6.0,6.0,39,0.00,,,0.00,meteohub,2013-09-26 09:25:00,
2013-09-26 03:30:00,48.6,24.1,30.72,NE,45,3.0,10.0,38,0.00,,,0.00,meteohub,2013-09-26 09:30:00,
2013-09-26 03:35:00,49.3,24.1,30.71,North,0,4.0,10.0,37,0.00,,,0.00,meteohub,2013-09-26 09:35:00,
2013-09-26 03:40:00,49.8,23.9,30.71,NE,45,4.0,10.0,36,0.00,,,0.00,meteohub,2013-09-26 09:40:00,
2013-09-26 03:45:00,49.3,23.5,30.71,East,90,4.0,7.0,36,0.00,,,0.00,meteohub,2013-09-26 09:45:00,
2013-09-26 03:50:00,48.6,22.8,30.71,NE,45,4.0,7.0,36,0.00,,,0.00,meteohub,2013-09-26 09:50:00,
2013-09-26 03:55:00,48.2,23.2,30.72,SE,135,8.0,8.0,37,0.00,,,0.00,meteohub,2013-09-26 09:55:00,
2013-09-26 04:00:00,47.3,25.3,30.72,SE,135,8.0,8.0,42,0.00,,,0.00,meteohub,2013-09-26 10:00:00,
2013-09-26 04:05:00,47.3,25.3,30.72,SE,135,8.0,8.0,42,0.00,,,0.00,meteohub,2013-09-26 10:05:00,
2013-09-26 04:10:00,47.1,24.1,30.72,NE,45,4.0,8.0,40,0.00,,,0.00,meteohub,2013-09-26 10:10:00,
2013-09-26 04:15:00,48.2,23.2,30.72,NE,45,6.0,8.0,37,0.00,,,0.00,meteohub,2013-09-26 10:15:00,
2013-09-26 04:20:00,48.9,22.5,30.72,North,0,4.0,8.0,35,0.00,,,0.00,meteohub,2013-09-26 10:20:00,
2013-09-26 04:25:00,49.1,21.9,30.72,NE,45,6.0,9.0,34,0.00,,,0.00,meteohub,2013-09-26 10:25:00,
2013-09-26 04:30:00,48.9,21.7,30.72,North,0,7.0,9.0,34,0.00,,,0.00,meteohub,2013-09-26 10:30:00,
2013-09-26 04:35:00,49.1,21.2,30.72,NE,45,8.0,9.0,33,0.00,,,0.00,meteohub,2013-09-26 10:35:00,
2013-09-26 04:40:00,50.0,20.5,30.72,NE,45,6.0,8.0,31,0.00,,,0.00,meteohub,2013-09-26 10:40:00,
2013-09-26 04:45:00,50.0,20.5,30.72,NE,45,7.0,8.0,31,0.00,,,0.00,meteohub,2013-09-26 10:45:00,
2013-09-26 04:50:00,49.8,20.3,30.72,NE,45,3.0,8.0,31,0.00,,,0.00,meteohub,2013-09-26 10:50:00,
2013-09-26 04:55:00,49.5,20.8,30.72,NE,45,4.0,8.0,32,0.00,,,0.00,meteohub,2013-09-26 10:55:00,
2013-09-26 05:00:00,48.9,20.3,30.72,NE,45,7.0,8.0,32,0.00,,,0.00,meteohub,2013-09-26 11:00:00,
2013-09-26 05:05:00,49.1,20.5,30.72,East,90,6.0,8.0,32,0.00,,,0.00,meteohub,2013-09-26 11:05:00,
2013-09-26 05:10:00,48.6,19.9,30.72,NE,45,6.0,8.0,32,0.00,,,0.00,meteohub,2013-09-26 11:10:00,
2013-09-26 05:15:00,48.6,19.9,30.72,NE,45,4.0,8.0,32,0.00,,,0.00,meteohub,2013-09-26 11:15:00,
2013-09-26 05:20:00,48.2,19.8,30.72,NE,45,4.0,8.0,32,0.00,,,0.00,meteohub,2013-09-26 11:20:00,
2013-09-26 05:25:00,48.2,20.5,30.72,North,0,5.0,8.0,33,0.00,,,0.00,meteohub,2013-09-26 11:25:00,
2013-09-26 05:30:00,48.6,19.9,30.72,NE,45,3.0,6.0,32,0.00,,,0.00,meteohub,2013-09-26 11:30:00,
2013-09-26 05:35:00,48.2,19.8,30.72,North,0,2.0,6.0,32,0.00,,,0.00,meteohub,2013-09-26 11:35:00,
2013-09-26 05:41:00,47.8,20.8,30.72,East,90,4.0,6.0,34,0.00,,,0.00,meteohub,2013-09-26 11:41:00,
2013-09-26 05:46:00,46.6,20.3,30.72,NE,45,7.0,7.0,35,0.00,,,0.00,meteohub,2013-09-26 11:46:00,
2013-09-26 05:51:00,46.4,21.6,30.72,North,0,1.0,7.0,37,0.00,,,0.00,meteohub,2013-09-26 11:51:00,
2013-09-26 05:56:00,45.1,21.7,30.73,East,90,6.0,7.0,39,0.00,,,0.00,meteohub,2013-09-26 11:56:00,
2013-09-26 06:01:00,44.4,22.1,30.73,NE,45,4.0,7.0,41,0.00,,,0.00,meteohub,2013-09-26 12:01:00,
2013-09-26 06:06:00,44.4,22.1,30.73,NE,45,4.0,6.0,41,0.00,,,0.00,meteohub,2013-09-26 12:06:00,
2013-09-26 06:11:00,43.9,21.7,30.73,East,90,6.0,6.0,41,0.00,,,0.00,meteohub,2013-09-26 12:11:00,
2013-09-26 06:16:00,43.0,22.1,30.73,NE,45,4.0,6.0,43,0.00,,,0.00,meteohub,2013-09-26 12:16:00,
2013-09-26 06:21:00,43.0,21.4,30.72,NE,45,4.0,6.0,42,0.00,,,0.00,meteohub,2013-09-26 12:21:00,
2013-09-26 06:26:00,43.9,21.7,30.73,NE,45,6.0,6.0,41,0.00,,,0.00,meteohub,2013-09-26 12:26:00,
2013-09-26 06:31:00,43.7,22.1,30.73,East,90,5.0,7.0,42,0.00,,,0.00,meteohub,2013-09-26 12:31:00,
2013-09-26 06:36:00,43.2,21.0,30.72,NE,45,4.0,7.0,41,0.00,,,0.00,meteohub,2013-09-26 12:36:00,
2013-09-26 06:41:00,43.5,21.4,30.73,NE,45,4.0,6.0,41,0.00,,,0.00,meteohub,2013-09-26 12:41:00,
2013-09-26 06:46:00,43.3,21.7,30.73,North,0,4.0,6.0,42,0.00,,,0.00,meteohub,2013-09-26 12:46:00,
2013-09-26 06:51:00,43.7,21.6,30.73,East,90,6.0,6.0,41,0.00,,,0.00,meteohub,2013-09-26 12:51:00,
2013-09-26 06:56:00,44.8,21.4,30.73,East,90,4.0,6.0,39,0.00,,,0.00,meteohub,2013-09-26 12:56:00,
2013-09-26 07:01:00,44.8,20.7,30.73,East,90,2.0,6.0,38,0.00,,,0.00,meteohub,2013-09-26 13:01:00,
2013-09-26 07:06:00,44.8,21.4,30.73,East,90,3.0,6.0,39,0.00,,,0.00,meteohub,2013-09-26 13:06:00,
2013-09-26 07:11:00,43.9,21.2,30.74,East,90,0.0,5.0,40,0.00,,,0.00,meteohub,2013-09-26 13:11:00,
2013-09-26 07:16:00,43.0,21.4,30.74,East,90,5.0,5.0,42,0.00,,,0.00,meteohub,2013-09-26 13:16:00,
2013-09-26 07:21:00,42.6,21.7,30.73,NE,45,6.0,6.0,43,0.00,,,0.00,meteohub,2013-09-26 13:21:00,
2013-09-26 07:26:00,43.9,21.7,30.74,East,90,5.0,6.0,41,0.00,,,0.00,meteohub,2013-09-26 13:26:00,
2013-09-26 07:31:00,45.0,21.6,30.74,SE,135,5.0,7.0,39,0.00,,,0.00,meteohub,2013-09-26 13:31:00,
2013-09-26 07:36:00,45.7,21.6,30.74,NE,45,4.0,7.0,38,0.00,,,0.00,meteohub,2013-09-26 13:36:00,
2013-09-26 07:41:00,46.0,21.9,30.74,NE,45,7.0,7.0,38,0.00,,,0.00,meteohub,2013-09-26 13:41:00,
2013-09-26 07:46:00,47.1,20.1,30.74,NE,45,8.0,8.0,34,0.00,,,0.00,meteohub,2013-09-26 13:46:00,
2013-09-26 07:52:00,47.8,20.1,30.74,NE,45,8.0,8.0,33,0.00,,,0.00,meteohub,2013-09-26 13:52:00,
2013-09-26 07:57:00,48.4,19.9,30.74,East,90,6.0,8.0,32,0.00,,,0.00,meteohub,2013-09-26 13:57:00,
2013-09-26 08:02:00,48.2,19.8,30.74,NE,45,8.0,8.0,32,0.00,,,0.00,meteohub,2013-09-26 14:02:00,
2013-09-26 08:07:00,48.2,19.8,30.74,NE,45,8.0,8.0,32,0.00,,,0.00,meteohub,2013-09-26 14:07:00,
2013-09-26 08:12:00,48.9,19.6,30.74,NE,45,8.0,8.0,31,0.00,,,0.00,meteohub,2013-09-26 14:12:00,
2013-09-26 08:17:00,48.7,20.8,30.74,ENE,68,7.0,8.0,33,0.00,,,0.00,meteohub,2013-09-26 14:17:00,
2013-09-26 08:22:00,48.7,20.1,30.74,NE,45,8.0,13.0,32,0.00,,,0.00,meteohub,2013-09-26 14:22:00,
2013-09-26 08:27:00,49.3,19.9,30.74,NE,45,4.0,13.0,31,0.00,,,0.00,meteohub,2013-09-26 14:27:00,
2013-09-26 08:32:00,50.0,18.1,30.74,NE,45,4.0,13.0,28,0.00,,,0.00,meteohub,2013-09-26 14:32:00,
2013-09-26 08:37:00,51.4,19.4,30.74,NE,45,4.0,8.0,28,0.00,,,0.00,meteohub,2013-09-26 14:37:00,
2013-09-26 08:42:00,52.9,18.9,30.74,NE,45,3.0,7.0,26,0.00,,,0.00,meteohub,2013-09-26 14:42:00,
2013-09-26 08:47:00,54.1,19.0,30.74,East,90,5.0,7.0,25,0.00,,,0.00,meteohub,2013-09-26 14:47:00,
2013-09-26 08:52:00,54.9,18.7,30.74,NE,45,5.0,7.0,24,0.00,,,0.00,meteohub,2013-09-26 14:52:00,
2013-09-26 08:57:00,55.9,20.7,30.75,NE,45,4.0,7.0,25,0.00,,,0.00,meteohub,2013-09-26 14:57:00,
2013-09-26 09:02:00,56.7,20.3,30.75,NE,45,2.0,7.0,24,0.00,,,0.00,meteohub,2013-09-26 15:02:00,
2013-09-26 09:07:00,57.6,19.9,30.75,East,90,8.0,8.0,23,0.00,,,0.00,meteohub,2013-09-26 15:07:00,
2013-09-26 09:12:00,58.1,19.4,30.75,North,0,9.0,9.0,22,0.00,,,0.00,meteohub,2013-09-26 15:12:00,
2013-09-26 09:17:00,58.6,19.9,30.75,East,90,8.0,9.0,22,0.00,,,0.00,meteohub,2013-09-26 15:17:00,
2013-09-26 09:22:00,59.2,19.2,30.75,SE,135,6.0,9.0,21,0.00,,,0.00,meteohub,2013-09-26 15:22:00,
2013-09-26 09:27:00,59.5,19.6,30.75,East,90,4.0,9.0,21,0.00,,,0.00,meteohub,2013-09-26 15:27:00,
2013-09-26 09:32:00,60.3,21.2,30.75,NE,45,2.0,8.0,22,0.00,,,0.00,meteohub,2013-09-26 15:32:00,
2013-09-26 09:37:00,61.2,20.8,30.75,East,90,4.0,8.0,21,0.00,,,0.00,meteohub,2013-09-26 15:37:00,
2013-09-26 09:42:00,61.3,19.9,30.75,East,90,9.0,9.0,20,0.00,,,0.00,meteohub,2013-09-26 15:42:00,
2013-09-26 09:47:00,61.3,19.9,30.74,East,90,9.0,9.0,20,0.00,,,0.00,meteohub,2013-09-26 15:47:00,
2013-09-26 09:52:00,61.3,19.9,30.74,ESE,113,11.0,11.0,20,0.00,,,0.00,meteohub,2013-09-26 15:52:00,
2013-09-26 09:57:00,61.5,20.1,30.74,SE,135,4.0,11.0,20,0.00,,,0.00,meteohub,2013-09-26 15:57:00,
2013-09-26 10:02:00,61.9,20.3,30.74,SE,135,7.0,11.0,20,0.00,,,0.00,meteohub,2013-09-26 16:02:00,
2013-09-26 10:07:00,61.9,20.3,30.74,SE,135,7.0,11.0,20,0.00,,,0.00,meteohub,2013-09-26 16:07:00,
2013-09-26 10:12:00,62.8,19.9,30.74,SE,135,8.0,11.0,19,0.00,,,0.00,meteohub,2013-09-26 16:12:00,
2013-09-26 10:17:00,63.3,19.0,30.74,ENE,68,7.0,8.0,18,0.00,,,0.00,meteohub,2013-09-26 16:17:00,
2013-09-26 10:22:00,63.5,19.2,30.74,SE,135,11.0,11.0,18,0.00,,,0.00,meteohub,2013-09-26 16:22:00,
2013-09-26 10:27:00,63.7,19.4,30.74,East,90,7.0,12.0,18,0.00,,,0.00,meteohub,2013-09-26 16:27:00,
2013-09-26 10:32:00,63.9,19.6,30.74,East,90,8.0,12.0,18,0.00,,,0.00,meteohub,2013-09-26 16:32:00,
2013-09-26 10:37:00,64.2,21.0,30.74,East,90,8.0,12.0,19,0.00,,,0.00,meteohub,2013-09-26 16:37:00,
2013-09-26 10:42:00,64.4,21.2,30.73,East,90,9.0,11.0,19,0.00,,,0.00,meteohub,2013-09-26 16:42:00,
2013-09-26 10:47:00,64.9,21.7,30.74,East,90,14.0,14.0,19,0.00,,,0.00,meteohub,2013-09-26 16:47:00,
2013-09-26 10:52:00,64.9,20.5,30.74,SE,135,8.0,14.0,18,0.00,,,0.00,meteohub,2013-09-26 16:52:00,
2013-09-26 10:57:00,64.9,20.5,30.73,East,90,4.0,15.0,18,0.00,,,0.00,meteohub,2013-09-26 16:57:00,
2013-09-26 11:02:00,65.3,21.9,30.74,SE,135,11.0,15.0,19,0.00,,,0.00,meteohub,2013-09-26 17:02:00,
2013-09-26 11:07:00,65.7,22.3,30.73,SE,135,8.0,15.0,19,0.00,,,0.00,meteohub,2013-09-26 17:07:00,
2013-09-26 11:12:00,66.0,22.6,30.74,East,90,7.0,11.0,19,0.00,,,0.00,meteohub,2013-09-26 17:12:00,
2013-09-26 11:17:00,66.4,21.6,30.73,East,90,10.0,11.0,18,0.00,,,0.00,meteohub,2013-09-26 17:17:00,
2013-09-26 11:22:00,66.6,21.7,30.73,SE,135,4.0,10.0,18,0.00,,,0.00,meteohub,2013-09-26 17:22:00,
2013-09-26 11:27:00,66.6,21.7,30.73,NE,45,8.0,10.0,18,0.00,,,0.00,meteohub,2013-09-26 17:27:00,
2013-09-26 11:32:00,66.6,20.3,30.73,ENE,68,9.0,10.0,17,0.00,,,0.00,meteohub,2013-09-26 17:32:00,
2013-09-26 11:37:00,66.6,20.3,30.73,SE,135,11.0,19.0,17,0.00,,,0.00,meteohub,2013-09-26 17:37:00,
2013-09-26 11:42:00,66.9,20.7,30.73,East,90,12.0,19.0,17,0.00,,,0.00,meteohub,2013-09-26 17:42:00,
2013-09-26 11:47:00,66.7,19.0,30.73,East,90,11.0,19.0,16,0.00,,,0.00,meteohub,2013-09-26 17:47:00,
2013-09-26 11:52:00,66.9,20.7,30.73,East,90,11.0,16.0,17,0.00,,,0.00,meteohub,2013-09-26 17:52:00,
2013-09-26 11:57:00,67.6,21.2,30.73,East,90,11.0,15.0,17,0.00,,,0.00,meteohub,2013-09-26 17:57:00,
2013-09-26 12:02:00,68.0,20.1,30.72,East,90,12.0,15.0,16,0.00,,,0.00,meteohub,2013-09-26 18:02:00,
2013-09-26 12:07:00,68.0,20.1,30.73,East,90,12.0,15.0,16,0.00,,,0.00,meteohub,2013-09-26 18:07:00,
2013-09-26 12:12:00,68.4,20.5,30.73,South,180,16.0,16.0,16,0.00,,,0.00,meteohub,2013-09-26 18:12:00,
2013-09-26 12:17:00,68.5,20.5,30.72,East,90,11.0,16.0,16,0.00,,,0.00,meteohub,2013-09-26 18:17:00,
2013-09-26 12:22:00,68.7,20.7,30.73,East,90,14.0,16.0,16,0.00,,,0.00,meteohub,2013-09-26 18:22:00,
2013-09-26 12:27:00,68.5,19.0,30.72,SE,135,6.0,16.0,15,0.00,,,0.00,meteohub,2013-09-26 18:27:00,
2013-09-26 12:32:00,68.5,19.0,30.73,East,90,15.0,17.0,15,0.00,,,0.00,meteohub,2013-09-26 18:32:00,
2013-09-26 12:37:00,68.7,19.2,30.72,East,90,11.0,18.0,15,0.00,,,0.00,meteohub,2013-09-26 18:37:00,
2013-09-26 12:42:00,69.3,21.2,30.72,East,90,8.0,18.0,16,0.00,,,0.00,meteohub,2013-09-26 18:42:00,
2013-09-26 12:47:00,69.1,19.4,30.72,SE,135,8.0,17.0,15,0.00,,,0.00,meteohub,2013-09-26 18:47:00,
2013-09-26 12:52:00,69.1,19.4,30.71,SE,135,8.0,17.0,15,0.00,,,0.00,meteohub,2013-09-26 18:52:00,
2013-09-26 12:57:00,69.4,21.2,30.71,South,180,16.0,17.0,16,0.00,,,0.00,meteohub,2013-09-26 18:57:00,
2013-09-26 13:02:00,69.8,18.5,30.71,South,180,8.0,17.0,14,0.00,,,0.00,meteohub,2013-09-26 19:02:00,
2013-09-26 13:07:00,70.0,18.5,30.71,East,90,10.0,16.0,14,0.00,,,0.00,meteohub,2013-09-26 19:07:00,
2013-09-26 13:12:00,70.0,18.5,30.71,East,90,10.0,16.0,14,0.00,,,0.00,meteohub,2013-09-26 19:12:00,
2013-09-26 13:17:00,70.0,18.5,30.71,East,90,13.0,23.0,14,0.00,,,0.00,meteohub,2013-09-26 19:17:00,
2013-09-26 13:22:00,69.8,18.5,30.71,East,90,11.0,23.0,14,0.00,,,0.00,meteohub,2013-09-26 19:22:00,
2013-09-26 13:27:00,70.2,18.7,30.71,SE,135,15.0,23.0,14,0.00,,,0.00,meteohub,2013-09-26 19:27:00,
2013-09-26 13:32:00,70.5,19.0,30.71,East,90,17.0,17.0,14,0.00,,,0.00,meteohub,2013-09-26 19:32:00,
2013-09-26 13:37:00,70.7,19.2,30.71,East,90,11.0,17.0,14,0.00,,,0.00,meteohub,2013-09-26 19:37:00,
2013-09-26 13:42:00,70.7,19.2,30.71,East,90,10.0,19.0,14,0.00,,,0.00,meteohub,2013-09-26 19:42:00,
2013-09-26 13:47:00,70.5,19.0,30.70,East,90,20.0,20.0,14,0.00,,,0.00,meteohub,2013-09-26 19:47:00,
2013-09-26 13:52:00,70.7,19.2,30.70,SW,225,4.0,20.0,14,0.00,,,0.00,meteohub,2013-09-26 19:52:00,
2013-09-26 13:57:00,71.1,21.0,30.70,East,90,16.0,20.0,15,0.00,,,0.00,meteohub,2013-09-26 19:57:00,
2013-09-26 14:02:00,71.2,19.6,30.70,SE,135,13.0,20.0,14,0.00,,,0.00,meteohub,2013-09-26 20:02:00,
2013-09-26 14:07:00,71.2,19.6,30.70,SE,135,13.0,17.0,14,0.00,,,0.00,meteohub,2013-09-26 20:07:00,
2013-09-26 14:12:00,71.4,19.8,30.71,SE,135,17.0,17.0,14,0.00,,,0.00,meteohub,2013-09-26 20:12:00,
2013-09-26 14:17:00,71.2,19.6,30.70,East,90,11.0,18.0,14,0.00,,,0.00,meteohub,2013-09-26 20:17:00,
2013-09-26 14:22:00,71.1,19.4,30.70,East,90,11.0,18.0,14,0.00,,,0.00,meteohub,2013-09-26 20:22:00,
2013-09-26 14:27:00,71.1,19.4,30.71,SE,135,12.0,18.0,14,0.00,,,0.00,meteohub,2013-09-26 20:27:00,
2013-09-26 14:32:00,71.4,19.8,30.71,East,90,11.0,15.0,14,0.00,,,0.00,meteohub,2013-09-26 20:32:00,
2013-09-26 14:37:00,71.6,18.1,30.70,SE,135,9.0,15.0,13,0.00,,,0.00,meteohub,2013-09-26 20:37:00,
2013-09-26 14:42:00,72.0,18.5,30.70,East,90,4.0,15.0,13,0.00,,,0.00,meteohub,2013-09-26 20:42:00,
2013-09-26 14:47:00,72.0,18.5,30.70,East,90,11.0,15.0,13,0.00,,,0.00,meteohub,2013-09-26 20:47:00,
2013-09-26 14:52:00,71.6,18.1,30.71,SE,135,15.0,15.0,13,0.00,,,0.00,meteohub,2013-09-26 20:52:00,
2013-09-26 14:57:00,71.4,19.8,30.70,ESE,113,10.0,19.0,14,0.00,,,0.00,meteohub,2013-09-26 20:57:00,
2013-09-26 15:02:00,71.4,19.8,30.70,SE,135,10.0,19.0,14,0.00,,,0.00,meteohub,2013-09-26 21:02:00,
2013-09-26 15:07:00,71.6,18.1,30.70,SE,135,14.0,19.0,13,0.00,,,0.00,meteohub,2013-09-26 21:07:00,
2013-09-26 15:12:00,72.0,18.5,30.70,NE,45,13.0,17.0,13,0.00,,,0.00,meteohub,2013-09-26 21:12:00,
2013-09-26 15:17:00,72.0,18.5,30.70,ENE,68,10.0,17.0,13,0.00,,,0.00,meteohub,2013-09-26 21:17:00,
2013-09-26 15:22:00,72.1,18.5,30.70,East,90,18.0,18.0,13,0.00,,,0.00,meteohub,2013-09-26 21:22:00,
2013-09-26 15:27:00,71.8,18.3,30.70,East,90,11.0,19.0,13,0.00,,,0.00,meteohub,2013-09-26 21:27:00,
2013-09-26 15:33:00,71.8,18.3,30.70,East,90,4.0,19.0,13,0.00,,,0.00,meteohub,2013-09-26 21:33:00,
2013-09-26 15:38:00,71.4,21.4,30.69,East,90,11.0,19.0,15,0.00,,,0.00,meteohub,2013-09-26 21:38:00,
2013-09-26 15:43:00,71.1,19.4,30.70,SE,135,12.0,16.0,14,0.00,,,0.00,meteohub,2013-09-26 21:43:00,
2013-09-26 15:48:00,70.7,19.2,30.69,SE,135,11.0,17.0,14,0.00,,,0.00,meteohub,2013-09-26 21:48:00,
2013-09-26 15:53:00,71.1,19.4,30.69,East,90,15.0,17.0,14,0.00,,,0.00,meteohub,2013-09-26 21:53:00,
2013-09-26 15:58:00,70.9,19.2,30.70,East,90,13.0,17.0,14,0.00,,,0.00,meteohub,2013-09-26 21:58:00,
2013-09-26 16:03:00,70.5,17.2,30.69,NE,45,11.0,17.0,13,0.00,,,0.00,meteohub,2013-09-26 22:03:00,
2013-09-26 16:08:00,69.8,16.7,30.69,East,90,14.0,17.0,13,0.00,,,0.00,meteohub,2013-09-26 22:08:00,
2013-09-26 16:13:00,69.8,16.7,30.70,ESE,113,11.0,17.0,13,0.00,,,0.00,meteohub,2013-09-26 22:13:00,
2013-09-26 16:18:00,69.3,18.0,30.69,East,90,14.0,14.0,14,0.00,,,0.00,meteohub,2013-09-26 22:18:00,
2013-09-26 16:23:00,69.3,18.0,30.69,East,90,5.0,16.0,14,0.00,,,0.00,meteohub,2013-09-26 22:23:00,
2013-09-26 16:28:00,69.1,18.0,30.70,SE,135,11.0,16.0,14,0.00,,,0.00,meteohub,2013-09-26 22:28:00,
2013-09-26 16:34:00,68.9,17.8,30.69,South,180,6.0,16.0,14,0.00,,,0.00,meteohub,2013-09-26 22:34:00,
2013-09-26 16:39:00,68.7,17.6,30.69,SE,135,11.0,22.0,14,0.00,,,0.00,meteohub,2013-09-26 22:39:00,
2013-09-26 16:44:00,68.5,17.4,30.69,East,90,11.0,22.0,14,0.00,,,0.00,meteohub,2013-09-26 22:44:00,
2013-09-26 16:49:00,68.4,17.2,30.69,SE,135,10.0,22.0,14,0.00,,,0.00,meteohub,2013-09-26 22:49:00,
2013-09-26 16:54:00,67.8,18.5,30.69,East,90,10.0,15.0,15,0.00,,,0.00,meteohub,2013-09-26 22:54:00,
2013-09-26 16:59:00,68.0,17.1,30.69,NE,45,16.0,16.0,14,0.00,,,0.00,meteohub,2013-09-26 22:59:00,
2013-09-26 17:04:00,68.0,18.7,30.69,South,180,12.0,17.0,15,0.00,,,0.00,meteohub,2013-09-26 23:04:00,
2013-09-26 17:09:00,67.5,18.1,30.69,East,90,9.0,17.0,15,0.00,,,0.00,meteohub,2013-09-26 23:09:00,
2013-09-26 17:14:00,67.1,18.0,30.70,SE,135,12.0,17.0,15,0.00,,,0.00,meteohub,2013-09-26 23:14:00,
2013-09-26 17:19:00,66.7,17.6,30.70,SE,135,12.0,17.0,15,0.00,,,0.00,meteohub,2013-09-26 23:19:00,
2013-09-26 17:24:00,66.4,18.9,30.69,SE,135,11.0,13.0,16,0.00,,,0.00,meteohub,2013-09-26 23:24:00,
2013-09-26 17:29:00,66.4,18.9,30.69,SE,135,12.0,14.0,16,0.00,,,0.00,meteohub,2013-09-26 23:29:00,
2013-09-26 17:34:00,66.2,18.7,30.70,East,90,15.0,15.0,16,0.00,,,0.00,meteohub,2013-09-26 23:34:00,
2013-09-26 17:39:00,65.8,19.8,30.70,NE,45,11.0,15.0,17,0.00,,,0.00,meteohub,2013-09-26 23:39:00,
2013-09-26 17:44:00,65.7,21.0,30.70,East,90,11.0,15.0,18,0.00,,,0.00,meteohub,2013-09-26 23:44:00,
2013-09-26 17:50:00,65.3,19.4,30.70,East,90,16.0,17.0,17,0.00,,,0.00,meteohub,2013-09-26 23:50:00,
2013-09-26 17:54:00,64.9,19.0,30.70,East,90,14.0,17.0,17,0.00,,,0.00,meteohub,2013-09-26 23:54:00,
2013-09-26 18:00:00,64.6,18.9,30.70,East,90,8.0,17.0,17,0.00,,,0.00,meteohub,2013-09-27 00:00:00,
2013-09-26 18:05:00,64.4,18.7,30.70,East,90,11.0,17.0,17,0.00,,,0.00,meteohub,2013-09-27 00:05:00,
2013-09-26 18:11:00,63.7,18.0,30.71,NE,45,14.0,17.0,17,0.00,,,0.00,meteohub,2013-09-27 00:11:00,
2013-09-26 18:16:00,62.4,18.3,30.71,SE,135,8.0,15.0,18,0.00,,,0.00,meteohub,2013-09-27 00:16:00,
2013-09-26 18:21:00,61.9,19.2,30.71,ENE,68,12.0,15.0,19,0.00,,,0.00,meteohub,2013-09-27 00:21:00,
2013-09-26 18:26:00,61.3,18.7,30.71,ENE,68,11.0,16.0,19,0.00,,,0.00,meteohub,2013-09-27 00:26:00,
2013-09-26 18:33:00,60.6,19.4,30.71,East,90,7.0,16.0,20,0.00,,,0.00,meteohub,2013-09-27 00:33:00,
2013-09-26 18:38:00,60.1,18.9,30.71,East,90,7.0,19.0,20,0.00,,,0.00,meteohub,2013-09-27 00:38:00,
2013-09-26 18:43:00,59.7,18.5,30.71,SE,135,13.0,19.0,20,0.00,,,0.00,meteohub,2013-09-27 00:43:00,
2013-09-26 18:48:00,59.4,18.3,30.72,NE,45,9.0,17.0,20,0.00,,,0.00,meteohub,2013-09-27 00:48:00,
2013-09-26 18:53:00,59.2,18.1,30.72,East,90,8.0,17.0,20,0.00,,,0.00,meteohub,2013-09-27 00:53:00,
2013-09-26 18:59:00,58.8,19.0,30.72,NE,45,7.0,17.0,21,0.00,,,0.00,meteohub,2013-09-27 00:59:00,
2013-09-26 19:04:00,58.3,18.5,30.72,East,90,8.0,12.0,21,0.00,,,0.00,meteohub,2013-09-27 01:04:00,
2013-09-26 19:09:00,57.7,18.1,30.73,East,90,4.0,12.0,21,0.00,,,0.00,meteohub,2013-09-27 01:09:00,
2013-09-26 19:15:00,57.2,17.6,30.73,East,90,3.0,11.0,21,0.00,,,0.00,meteohub,2013-09-27 01:15:00,
2013-09-26 19:20:00,56.7,18.3,30.73,East,90,4.0,10.0,22,0.00,,,0.00,meteohub,2013-09-27 01:20:00,
2013-09-26 19:25:00,56.5,18.1,30.73,East,90,7.0,9.0,22,0.00,,,0.00,meteohub,2013-09-27 01:25:00,
2013-09-26 19:30:00,56.3,18.0,30.73,East,90,9.0,9.0,22,0.00,,,0.00,meteohub,2013-09-27 01:30:00,
2013-09-26 19:35:00,55.9,17.6,30.73,East,90,6.0,9.0,22,0.00,,,0.00,meteohub,2013-09-27 01:35:00,
2013-09-26 19:40:00,55.6,17.2,30.73,East,90,3.0,9.0,22,0.00,,,0.00,meteohub,2013-09-27 01:40:00,
2013-09-26 19:45:00,55.0,15.8,30.73,East,90,7.0,9.0,21,0.00,,,0.00,meteohub,2013-09-27 01:45:00,
2013-09-26 19:50:00,54.9,15.6,30.74,East,90,4.0,7.0,21,0.00,,,0.00,meteohub,2013-09-27 01:50:00,
2013-09-26 19:56:00,54.5,15.3,30.73,NE,45,7.0,7.0,21,0.00,,,0.00,meteohub,2013-09-27 01:56:00,
2013-09-26 20:01:00,54.5,15.3,30.74,ENE,68,6.0,7.0,21,0.00,,,0.00,meteohub,2013-09-27 02:01:00,
2013-09-26 20:06:00,54.5,15.3,30.74,ENE,68,6.0,8.0,21,0.00,,,0.00,meteohub,2013-09-27 02:06:00,
2013-09-26 20:11:00,54.3,15.3,30.74,ENE,68,5.0,8.0,21,0.00,,,0.00,meteohub,2013-09-27 02:11:00,
2013-09-26 20:16:00,54.0,14.9,30.74,East,90,1.0,6.0,21,0.00,,,0.00,meteohub,2013-09-27 02:16:00,
2013-09-26 20:21:00,53.4,15.4,30.74,ENE,68,4.0,6.0,22,0.00,,,0.00,meteohub,2013-09-27 02:21:00,
2013-09-26 20:26:00,52.9,15.1,30.74,NE,45,4.0,5.0,22,0.00,,,0.00,meteohub,2013-09-27 02:26:00,
2013-09-26 20:31:00,52.7,14.9,30.74,NE,45,4.0,7.0,22,0.00,,,0.00,meteohub,2013-09-27 02:31:00,
2013-09-26 20:36:00,52.9,15.1,30.74,NE,45,6.0,7.0,22,0.00,,,0.00,meteohub,2013-09-27 02:36:00,
2013-09-26 20:41:00,53.1,15.3,30.75,SE,135,3.0,7.0,22,0.00,,,0.00,meteohub,2013-09-27 02:41:00,
2013-09-26 20:46:00,52.9,15.1,30.75,NE,45,3.0,8.0,22,0.00,,,0.00,meteohub,2013-09-27 02:46:00,
2013-09-26 20:51:00,52.3,15.6,30.75,East,90,4.0,8.0,23,0.00,,,0.00,meteohub,2013-09-27 02:51:00,
2013-09-26 20:56:00,52.0,15.3,30.75,NE,45,4.0,8.0,23,0.00,,,0.00,meteohub,2013-09-27 02:56:00,
2013-09-26 21:01:00,51.6,16.9,30.76,NE,45,4.0,4.0,25,0.00,,,0.00,meteohub,2013-09-27 03:01:00,
2013-09-26 21:06:00,51.6,16.9,30.76,NE,45,5.0,7.0,25,0.00,,,0.00,meteohub,2013-09-27 03:06:00,
2013-09-26 21:11:00,51.8,17.1,30.76,NE,45,8.0,8.0,25,0.00,,,0.00,meteohub,2013-09-27 03:11:00,
2013-09-26 21:16:00,52.0,17.2,30.76,NE,45,4.0,8.0,25,0.00,,,0.00,meteohub,2013-09-27 03:16:00,
2013-09-26 21:21:00,52.0,17.2,30.76,NE,45,4.0,8.0,25,0.00,,,0.00,meteohub,2013-09-27 03:21:00,
2013-09-26 21:27:00,51.8,16.2,30.76,East,90,7.0,8.0,24,0.00,,,0.00,meteohub,2013-09-27 03:27:00,
2013-09-26 21:32:00,51.8,16.2,30.76,NE,45,4.0,7.0,24,0.00,,,0.00,meteohub,2013-09-27 03:32:00,
2013-09-26 21:37:00,51.4,16.7,30.76,East,90,5.0,8.0,25,0.00,,,0.00,meteohub,2013-09-27 03:37:00,
2013-09-26 21:42:00,51.4,16.7,30.76,NE,45,5.0,9.0,25,0.00,,,0.00,meteohub,2013-09-27 03:42:00,
2013-09-26 21:47:00,51.4,15.8,30.76,NE,45,6.0,9.0,24,0.00,,,0.00,meteohub,2013-09-27 03:47:00,
2013-09-26 21:52:00,51.4,15.8,30.76,East,90,5.0,7.0,24,0.00,,,0.00,meteohub,2013-09-27 03:52:00,
2013-09-26 21:57:00,51.3,15.6,30.76,NE,45,3.0,6.0,24,0.00,,,0.00,meteohub,2013-09-27 03:57:00,
2013-09-26 22:01:00,51.3,15.6,30.76,NE,45,3.0,6.0,24,0.00,,,0.00,meteohub,2013-09-27 04:01:00,
2013-09-26 22:02:00,51.3,15.6,30.76,NE,45,3.0,6.0,24,0.00,,,0.00,meteohub,2013-09-27 04:02:00,
2013-09-26 22:07:00,50.7,16.2,30.76,East,90,5.0,5.0,25,0.00,,,0.00,meteohub,2013-09-27 04:07:00,
2013-09-26 22:12:00,49.8,17.2,30.76,East,90,2.0,5.0,27,0.00,,,0.00,meteohub,2013-09-27 04:12:00,
2013-09-26 22:17:00,48.0,18.1,30.76,East,90,4.0,5.0,30,0.00,,,0.00,meteohub,2013-09-27 04:17:00,
2013-09-26 22:22:00,47.3,17.4,30.76,NE,45,3.0,5.0,30,0.00,,,0.00,meteohub,2013-09-27 04:22:00,
2013-09-26 22:27:00,47.5,18.3,30.76,East,90,3.0,5.0,31,0.00,,,0.00,meteohub,2013-09-27 04:27:00,
2013-09-26 22:32:00,46.8,19.2,30.76,East,90,4.0,5.0,33,0.00,,,0.00,meteohub,2013-09-27 04:32:00,
2013-09-26 22:37:00,46.2,18.7,30.77,East,90,7.0,7.0,33,0.00,,,0.00,meteohub,2013-09-27 04:37:00,
2013-09-26 22:42:00,46.9,19.4,30.76,NE,45,4.0,7.0,33,0.00,,,0.00,meteohub,2013-09-27 04:42:00,
2013-09-26 22:47:00,47.7,19.2,30.76,NE,45,3.0,7.0,32,0.00,,,0.00,meteohub,2013-09-27 04:47:00,
2013-09-26 22:53:00,48.2,17.4,30.76,East,90,5.0,7.0,29,0.00,,,0.00,meteohub,2013-09-27 04:53:00,
2013-09-26 22:58:00,48.6,19.2,30.76,NE,45,2.0,7.0,31,0.00,,,0.00,meteohub,2013-09-27 04:58:00,
2013-09-26 23:03:00,48.0,19.6,30.76,East,90,1.0,7.0,32,0.00,,,0.00,meteohub,2013-09-27 05:03:00,
2013-09-26 23:08:00,46.9,19.4,30.76,East,90,3.0,7.0,33,0.00,,,0.00,meteohub,2013-09-27 05:08:00,
2013-09-26 23:13:00,46.6,18.3,30.76,East,90,4.0,4.0,32,0.00,,,0.00,meteohub,2013-09-27 05:13:00,
2013-09-26 23:18:00,46.9,19.4,30.76,NE,45,6.0,6.0,33,0.00,,,0.00,meteohub,2013-09-27 05:18:00,
2013-09-26 23:23:00,48.0,20.3,30.76,NE,45,3.0,6.0,33,0.00,,,0.00,meteohub,2013-09-27 05:23:00,
2013-09-26 23:28:00,48.2,19.0,30.76,NE,45,2.0,6.0,31,0.00,,,0.00,meteohub,2013-09-27 05:28:00,
2013-09-26 23:33:00,48.0,19.6,30.76,East,90,4.0,6.0,32,0.00,,,0.00,meteohub,2013-09-27 05:33:00,
2013-09-26 23:38:00,48.2,18.1,30.76,South,180,0.0,5.0,30,0.00,,,0.00,meteohub,2013-09-27 05:38:00,
2013-09-26 23:43:00,47.8,20.1,30.76,East,90,0.0,5.0,33,0.00,,,0.00,meteohub,2013-09-27 05:43:00,
2013-09-26 23:48:00,46.6,20.3,30.76,NE,45,0.0,4.0,35,0.00,,,0.00,meteohub,2013-09-27 05:48:00,
2013-09-26 23:53:00,45.7,21.6,30.76,East,90,0.0,4.0,38,0.00,,,0.00,meteohub,2013-09-27 05:53:00,
2013-09-26 23:58:00,45.0,21.6,30.76,NE,45,0.0,0.0,39,0.00,,,0.00,meteohub,2013-09-27 05:58:00,